sensor_id;sensor_type;location;lat;lon;timestamp;temperature;humidity
56761;DHT22;42633;44.494;11.356;2022-09-02T00:04:24;21.10;99.90
56761;DHT22;42633;44.494;11.356;2022-09-02T00:07:28;21.10;99.90
56761;DHT22;42633;44.494;11.356;2022-09-02T00:10:35;21.10;99.90
56761;DHT22;42633;44.494;11.356;2022-09-02T00:13:39;21.10;99.90
56761;DHT22;42633;44.494;11.356;2022-09-02T00:16:43;21.10;99.90
56761;DHT22;42633;44.494;11.356;2022-09-02T00:19:54;21.10;99.90
56761;DHT22;42633;44.494;11.356;2022-09-02T00:22:59;21.00;99.90
56761;DHT22;42633;44.494;11.356;2022-09-02T00:26:04;21.00;99.90
56761;DHT22;42633;44.494;11.356;2022-09-02T00:29:08;21.00;99.90
56761;DHT22;42633;44.494;11.356;2022-09-02T00:32:13;20.90;99.90
56761;DHT22;42633;44.494;11.356;2022-09-02T00:35:17;20.90;99.90
56761;DHT22;42633;44.494;11.356;2022-09-02T00:38:22;20.90;99.90
56761;DHT22;42633;44.494;11.356;2022-09-02T00:41:28;20.90;99.90
56761;DHT22;42633;44.494;11.356;2022-09-02T00:44:33;20.90;99.90
56761;DHT22;42633;44.494;11.356;2022-09-02T00:47:37;20.90;99.90
56761;DHT22;42633;44.494;11.356;2022-09-02T00:50:41;20.90;99.90
56761;DHT22;42633;44.494;11.356;2022-09-02T00:53:47;20.80;99.90
56761;DHT22;42633;44.494;11.356;2022-09-02T00:56:52;20.80;99.90
56761;DHT22;42633;44.494;11.356;2022-09-02T01:00:18;20.80;99.90
56761;DHT22;42633;44.494;11.356;2022-09-02T01:03:25;20.80;99.90
56761;DHT22;42633;44.494;11.356;2022-09-02T01:06:30;20.80;99.90
56761;DHT22;42633;44.494;11.356;2022-09-02T01:09:36;20.70;99.90
56761;DHT22;42633;44.494;11.356;2022-09-02T01:12:42;20.80;99.90
56761;DHT22;42633;44.494;11.356;2022-09-02T01:15:51;20.70;99.90
56761;DHT22;42633;44.494;11.356;2022-09-02T01:18:57;20.70;99.90
56761;DHT22;42633;44.494;11.356;2022-09-02T01:22:14;20.70;99.90
56761;DHT22;42633;44.494;11.356;2022-09-02T01:25:22;20.70;99.90
56761;DHT22;42633;44.494;11.356;2022-09-02T01:28:26;20.70;99.90
56761;DHT22;42633;44.494;11.356;2022-09-02T01:31:31;20.60;99.90
56761;DHT22;42633;44.494;11.356;2022-09-02T01:34:35;20.70;99.90
56761;DHT22;42633;44.494;11.356;2022-09-02T01:37:39;20.60;99.90
56761;DHT22;42633;44.494;11.356;2022-09-02T01:40:44;20.60;99.90
56761;DHT22;42633;44.494;11.356;2022-09-02T01:43:51;20.60;99.90
56761;DHT22;42633;44.494;11.356;2022-09-02T01:46:55;20.60;99.90
56761;DHT22;42633;44.494;11.356;2022-09-02T01:49:59;20.50;99.90
56761;DHT22;42633;44.494;11.356;2022-09-02T01:53:05;20.50;99.90
56761;DHT22;42633;44.494;11.356;2022-09-02T01:56:10;20.50;99.90
56761;DHT22;42633;44.494;11.356;2022-09-02T01:59:15;20.40;99.90
56761;DHT22;42633;44.494;11.356;2022-09-02T02:02:21;20.40;99.90
56761;DHT22;42633;44.494;11.356;2022-09-02T02:05:25;20.40;99.90
56761;DHT22;42633;44.494;11.356;2022-09-02T02:08:30;20.40;99.90
56761;DHT22;42633;44.494;11.356;2022-09-02T02:11:35;20.40;99.90
56761;DHT22;42633;44.494;11.356;2022-09-02T02:14:40;20.40;99.90
56761;DHT22;42633;44.494;11.356;2022-09-02T02:17:44;20.30;99.90
56761;DHT22;42633;44.494;11.356;2022-09-02T02:20:48;20.30;99.90
56761;DHT22;42633;44.494;11.356;2022-09-02T02:23:52;20.30;99.90
56761;DHT22;42633;44.494;11.356;2022-09-02T02:26:56;20.30;99.90
56761;DHT22;42633;44.494;11.356;2022-09-02T02:30:01;20.30;99.90
56761;DHT22;42633;44.494;11.356;2022-09-02T02:33:08;20.30;99.90
56761;DHT22;42633;44.494;11.356;2022-09-02T02:36:13;20.30;99.90
56761;DHT22;42633;44.494;11.356;2022-09-02T02:39:17;20.30;99.90
56761;DHT22;42633;44.494;11.356;2022-09-02T02:42:23;20.30;99.90
56761;DHT22;42633;44.494;11.356;2022-09-02T02:45:27;20.30;99.90
56761;DHT22;42633;44.494;11.356;2022-09-02T02:48:34;20.30;99.90
56761;DHT22;42633;44.494;11.356;2022-09-02T02:51:39;20.30;99.90
56761;DHT22;42633;44.494;11.356;2022-09-02T02:54:43;20.30;99.90
56761;DHT22;42633;44.494;11.356;2022-09-02T02:57:49;20.30;99.90
56761;DHT22;42633;44.494;11.356;2022-09-02T03:00:53;20.30;99.90
56761;DHT22;42633;44.494;11.356;2022-09-02T03:03:58;20.30;99.90
56761;DHT22;42633;44.494;11.356;2022-09-02T03:07:04;20.30;99.90
56761;DHT22;42633;44.494;11.356;2022-09-02T03:10:11;20.30;99.90
56761;DHT22;42633;44.494;11.356;2022-09-02T03:13:17;20.30;99.90
56761;DHT22;42633;44.494;11.356;2022-09-02T03:16:22;20.20;99.90
56761;DHT22;42633;44.494;11.356;2022-09-02T03:19:26;20.20;99.90
56761;DHT22;42633;44.494;11.356;2022-09-02T03:22:43;20.20;99.90
56761;DHT22;42633;44.494;11.356;2022-09-02T03:26:16;20.20;99.90
56761;DHT22;42633;44.494;11.356;2022-09-02T03:29:25;20.20;99.90
56761;DHT22;42633;44.494;11.356;2022-09-02T03:32:31;20.20;99.90
56761;DHT22;42633;44.494;11.356;2022-09-02T03:35:40;20.20;99.90
56761;DHT22;42633;44.494;11.356;2022-09-02T03:38:45;20.20;99.90
56761;DHT22;42633;44.494;11.356;2022-09-02T03:41:50;20.20;99.90
56761;DHT22;42633;44.494;11.356;2022-09-02T03:44:58;20.10;99.90
56761;DHT22;42633;44.494;11.356;2022-09-02T03:51:51;20.10;99.90
56761;DHT22;42633;44.494;11.356;2022-09-02T03:54:57;20.10;99.90
56761;DHT22;42633;44.494;11.356;2022-09-02T03:58:08;20.10;99.90
56761;DHT22;42633;44.494;11.356;2022-09-02T04:01:24;20.00;99.90
56761;DHT22;42633;44.494;11.356;2022-09-02T04:04:30;20.00;99.90
56761;DHT22;42633;44.494;11.356;2022-09-02T04:07:37;20.00;99.90
56761;DHT22;42633;44.494;11.356;2022-09-02T04:10:44;19.90;99.90
56761;DHT22;42633;44.494;11.356;2022-09-02T04:13:51;20.00;99.90
56761;DHT22;42633;44.494;11.356;2022-09-02T04:16:59;19.90;99.90
56761;DHT22;42633;44.494;11.356;2022-09-02T04:20:04;19.90;99.90
56761;DHT22;42633;44.494;11.356;2022-09-02T04:23:10;19.90;99.90
56761;DHT22;42633;44.494;11.356;2022-09-02T04:26:17;19.80;99.90
56761;DHT22;42633;44.494;11.356;2022-09-02T04:29:21;19.80;99.90
56761;DHT22;42633;44.494;11.356;2022-09-02T04:32:30;19.80;99.90
56761;DHT22;42633;44.494;11.356;2022-09-02T04:35:40;19.70;99.90
56761;DHT22;42633;44.494;11.356;2022-09-02T04:38:45;19.70;99.90
56761;DHT22;42633;44.494;11.356;2022-09-02T04:41:50;19.70;99.90
56761;DHT22;42633;44.494;11.356;2022-09-02T04:44:56;19.80;99.90
56761;DHT22;42633;44.494;11.356;2022-09-02T04:48:02;19.80;99.90
56761;DHT22;42633;44.494;11.356;2022-09-02T04:51:16;19.80;99.90
56761;DHT22;42633;44.494;11.356;2022-09-02T04:54:22;19.90;99.90
56761;DHT22;42633;44.494;11.356;2022-09-02T04:57:27;19.90;99.90
56761;DHT22;42633;44.494;11.356;2022-09-02T05:00:32;19.90;99.90
56761;DHT22;42633;44.494;11.356;2022-09-02T05:03:38;20.00;99.90
56761;DHT22;42633;44.494;11.356;2022-09-02T05:06:43;20.00;99.90
56761;DHT22;42633;44.494;11.356;2022-09-02T05:09:58;20.00;99.90
56761;DHT22;42633;44.494;11.356;2022-09-02T05:13:04;20.10;99.90
56761;DHT22;42633;44.494;11.356;2022-09-02T05:16:14;20.20;99.90
56761;DHT22;42633;44.494;11.356;2022-09-02T05:19:23;20.20;99.90
56761;DHT22;42633;44.494;11.356;2022-09-02T05:22:28;20.30;99.90
56761;DHT22;42633;44.494;11.356;2022-09-02T05:25:36;20.30;99.90
56761;DHT22;42633;44.494;11.356;2022-09-02T05:28:42;20.40;99.90
56761;DHT22;42633;44.494;11.356;2022-09-02T05:31:48;20.50;99.90
56761;DHT22;42633;44.494;11.356;2022-09-02T05:34:54;20.60;99.90
56761;DHT22;42633;44.494;11.356;2022-09-02T05:37:59;20.70;99.90
56761;DHT22;42633;44.494;11.356;2022-09-02T05:41:09;20.80;99.90
56761;DHT22;42633;44.494;11.356;2022-09-02T05:44:15;20.90;99.90
56761;DHT22;42633;44.494;11.356;2022-09-02T05:47:21;21.00;99.90
56761;DHT22;42633;44.494;11.356;2022-09-02T05:50:28;21.10;99.90
56761;DHT22;42633;44.494;11.356;2022-09-02T05:53:33;21.20;99.90
56761;DHT22;42633;44.494;11.356;2022-09-02T05:56:41;21.20;99.90
56761;DHT22;42633;44.494;11.356;2022-09-02T05:59:45;21.10;99.90
56761;DHT22;42633;44.494;11.356;2022-09-02T06:02:55;21.10;99.90
56761;DHT22;42633;44.494;11.356;2022-09-02T06:06:09;21.10;99.90
56761;DHT22;42633;44.494;11.356;2022-09-02T06:09:19;21.20;99.90
56761;DHT22;42633;44.494;11.356;2022-09-02T06:12:24;21.30;99.90
56761;DHT22;42633;44.494;11.356;2022-09-02T06:15:29;21.30;99.90
56761;DHT22;42633;44.494;11.356;2022-09-02T06:18:37;21.40;99.90
56761;DHT22;42633;44.494;11.356;2022-09-02T06:21:42;21.50;99.90
56761;DHT22;42633;44.494;11.356;2022-09-02T06:24:45;21.60;99.90
56761;DHT22;42633;44.494;11.356;2022-09-02T06:27:55;21.60;99.90
56761;DHT22;42633;44.494;11.356;2022-09-02T06:31:09;21.50;99.90
56761;DHT22;42633;44.494;11.356;2022-09-02T06:34:16;21.40;99.90
56761;DHT22;42633;44.494;11.356;2022-09-02T06:37:20;21.30;99.90
56761;DHT22;42633;44.494;11.356;2022-09-02T06:40:25;21.30;99.90
56761;DHT22;42633;44.494;11.356;2022-09-02T06:43:30;21.30;99.90
56761;DHT22;42633;44.494;11.356;2022-09-02T06:46:55;21.40;99.90
56761;DHT22;42633;44.494;11.356;2022-09-02T06:49:59;21.40;99.90
56761;DHT22;42633;44.494;11.356;2022-09-02T06:53:04;21.60;99.90
56761;DHT22;42633;44.494;11.356;2022-09-02T06:56:12;21.70;99.90
56761;DHT22;42633;44.494;11.356;2022-09-02T06:59:18;21.70;99.90
56761;DHT22;42633;44.494;11.356;2022-09-02T07:02:29;21.90;99.90
56761;DHT22;42633;44.494;11.356;2022-09-02T07:05:33;22.00;99.90
56761;DHT22;42633;44.494;11.356;2022-09-02T07:08:39;22.20;99.90
56761;DHT22;42633;44.494;11.356;2022-09-02T07:11:44;22.30;99.90
56761;DHT22;42633;44.494;11.356;2022-09-02T07:14:52;22.40;99.90
56761;DHT22;42633;44.494;11.356;2022-09-02T07:18:02;22.60;99.90
56761;DHT22;42633;44.494;11.356;2022-09-02T07:21:12;22.70;99.90
56761;DHT22;42633;44.494;11.356;2022-09-02T07:24:18;22.80;99.90
56761;DHT22;42633;44.494;11.356;2022-09-02T07:27:22;22.90;99.90
56761;DHT22;42633;44.494;11.356;2022-09-02T07:30:27;23.00;99.90
56761;DHT22;42633;44.494;11.356;2022-09-02T07:33:42;23.20;99.90
56761;DHT22;42633;44.494;11.356;2022-09-02T07:36:48;23.20;99.90
56761;DHT22;42633;44.494;11.356;2022-09-02T07:39:56;23.30;99.90
56761;DHT22;42633;44.494;11.356;2022-09-02T07:43:06;23.40;99.90
56761;DHT22;42633;44.494;11.356;2022-09-02T07:46:12;23.20;99.90
56761;DHT22;42633;44.494;11.356;2022-09-02T07:49:18;23.20;99.90
56761;DHT22;42633;44.494;11.356;2022-09-02T07:52:26;23.20;99.90
56761;DHT22;42633;44.494;11.356;2022-09-02T07:55:33;23.40;99.90
56761;DHT22;42633;44.494;11.356;2022-09-02T07:58:41;23.60;99.90
56761;DHT22;42633;44.494;11.356;2022-09-02T08:01:46;23.70;99.90
56761;DHT22;42633;44.494;11.356;2022-09-02T08:04:52;23.80;99.90
56761;DHT22;42633;44.494;11.356;2022-09-02T08:07:58;23.90;99.90
56761;DHT22;42633;44.494;11.356;2022-09-02T08:11:03;23.90;99.90
56761;DHT22;42633;44.494;11.356;2022-09-02T08:14:10;24.10;99.90
56761;DHT22;42633;44.494;11.356;2022-09-02T08:17:14;24.10;99.90
56761;DHT22;42633;44.494;11.356;2022-09-02T08:20:18;24.20;99.90
56761;DHT22;42633;44.494;11.356;2022-09-02T08:23:23;24.40;99.90
56761;DHT22;42633;44.494;11.356;2022-09-02T08:26:27;24.60;99.90
56761;DHT22;42633;44.494;11.356;2022-09-02T08:29:31;24.70;99.90
56761;DHT22;42633;44.494;11.356;2022-09-02T08:32:36;24.80;99.90
56761;DHT22;42633;44.494;11.356;2022-09-02T08:35:41;24.80;99.90
56761;DHT22;42633;44.494;11.356;2022-09-02T08:38:45;24.90;99.90
56761;DHT22;42633;44.494;11.356;2022-09-02T08:42:34;25.10;99.90
56761;DHT22;42633;44.494;11.356;2022-09-02T08:51:56;25.20;99.60
56761;DHT22;42633;44.494;11.356;2022-09-02T08:55:01;25.40;99.00
56761;DHT22;42633;44.494;11.356;2022-09-02T08:58:05;25.60;98.50
56761;DHT22;42633;44.494;11.356;2022-09-02T09:01:44;25.70;98.40
56761;DHT22;42633;44.494;11.356;2022-09-02T09:11:42;26.10;97.40
56761;DHT22;42633;44.494;11.356;2022-09-02T09:17:59;26.20;96.70
56761;DHT22;42633;44.494;11.356;2022-09-02T09:21:08;26.20;97.10
56761;DHT22;42633;44.494;11.356;2022-09-02T09:24:27;26.40;96.40
56761;DHT22;42633;44.494;11.356;2022-09-02T09:27:32;26.50;96.30
56761;DHT22;42633;44.494;11.356;2022-09-02T09:30:36;26.60;96.00
56761;DHT22;42633;44.494;11.356;2022-09-02T09:37:05;26.80;95.20
56761;DHT22;42633;44.494;11.356;2022-09-02T09:43:30;27.10;94.80
56761;DHT22;42633;44.494;11.356;2022-09-02T09:46:34;27.10;94.50
56761;DHT22;42633;44.494;11.356;2022-09-02T09:49:38;27.20;94.20
56761;DHT22;42633;44.494;11.356;2022-09-02T09:52:43;27.30;94.30
56761;DHT22;42633;44.494;11.356;2022-09-02T09:58:56;26.80;94.40
56761;DHT22;42633;44.494;11.356;2022-09-02T10:02:01;26.50;94.10
56761;DHT22;42633;44.494;11.356;2022-09-02T10:05:27;26.60;93.90
56761;DHT22;42633;44.494;11.356;2022-09-02T10:08:32;26.80;93.70
56761;DHT22;42633;44.494;11.356;2022-09-02T10:11:36;26.90;93.70
56761;DHT22;42633;44.494;11.356;2022-09-02T10:14:46;27.30;93.20
56761;DHT22;42633;44.494;11.356;2022-09-02T10:34:33;27.20;90.00
56761;DHT22;42633;44.494;11.356;2022-09-02T10:51:50;27.60;84.40
56761;DHT22;42633;44.494;11.356;2022-09-02T10:55:05;27.50;84.80
56761;DHT22;42633;44.494;11.356;2022-09-02T10:58:17;27.80;82.70
56761;DHT22;42633;44.494;11.356;2022-09-02T11:08:22;27.90;84.30
56761;DHT22;42633;44.494;11.356;2022-09-02T11:11:45;28.10;83.50
56761;DHT22;42633;44.494;11.356;2022-09-02T11:15:09;28.40;82.80
56761;DHT22;42633;44.494;11.356;2022-09-02T11:18:24;28.20;82.60
56761;DHT22;42633;44.494;11.356;2022-09-02T11:21:59;28.30;82.10
56761;DHT22;42633;44.494;11.356;2022-09-02T11:31:51;28.30;83.60
56761;DHT22;42633;44.494;11.356;2022-09-02T11:35:05;28.60;82.00
56761;DHT22;42633;44.494;11.356;2022-09-02T11:38:35;28.90;81.10
56761;DHT22;42633;44.494;11.356;2022-09-02T11:42:03;29.10;80.20
56761;DHT22;42633;44.494;11.356;2022-09-02T11:45:14;29.20;78.80
56761;DHT22;42633;44.494;11.356;2022-09-02T11:55:33;29.30;76.30
56761;DHT22;42633;44.494;11.356;2022-09-02T11:58:45;29.50;75.30
56761;DHT22;42633;44.494;11.356;2022-09-02T12:01:54;29.30;75.90
56761;DHT22;42633;44.494;11.356;2022-09-02T12:11:44;29.80;74.50
56761;DHT22;42633;44.494;11.356;2022-09-02T12:24:07;29.90;72.60
56761;DHT22;42633;44.494;11.356;2022-09-02T12:37:49;30.00;72.30
56761;DHT22;42633;44.494;11.356;2022-09-02T12:50:57;29.60;71.30
56761;DHT22;42633;44.494;11.356;2022-09-02T12:54:04;29.60;71.80
56761;DHT22;42633;44.494;11.356;2022-09-02T12:57:09;29.80;71.60
56761;DHT22;42633;44.494;11.356;2022-09-02T13:14:26;29.50;68.60
56761;DHT22;42633;44.494;11.356;2022-09-02T13:34:23;30.20;70.70
56761;DHT22;42633;44.494;11.356;2022-09-02T13:37:35;30.30;70.20
56761;DHT22;42633;44.494;11.356;2022-09-02T13:40:42;30.30;71.10
56761;DHT22;42633;44.494;11.356;2022-09-02T13:43:46;30.10;70.90
56761;DHT22;42633;44.494;11.356;2022-09-02T13:47:03;29.90;71.30
56761;DHT22;42633;44.494;11.356;2022-09-02T13:50:09;29.90;71.30
56761;DHT22;42633;44.494;11.356;2022-09-02T13:53:46;30.00;71.20
56761;DHT22;42633;44.494;11.356;2022-09-02T13:56:51;30.00;71.40
56761;DHT22;42633;44.494;11.356;2022-09-02T13:59:56;29.90;71.90
56761;DHT22;42633;44.494;11.356;2022-09-02T14:03:12;30.00;72.10
56761;DHT22;42633;44.494;11.356;2022-09-02T14:06:28;30.20;72.40
56761;DHT22;42633;44.494;11.356;2022-09-02T14:09:45;30.20;71.90
56761;DHT22;42633;44.494;11.356;2022-09-02T14:12:51;30.10;72.60
56761;DHT22;42633;44.494;11.356;2022-09-02T14:19:38;30.10;72.60
56761;DHT22;42633;44.494;11.356;2022-09-02T14:22:43;30.10;72.20
56761;DHT22;42633;44.494;11.356;2022-09-02T14:25:56;30.00;71.40
56761;DHT22;42633;44.494;11.356;2022-09-02T14:29:05;30.00;72.40
56761;DHT22;42633;44.494;11.356;2022-09-02T14:32:11;29.90;71.70
56761;DHT22;42633;44.494;11.356;2022-09-02T14:35:22;29.90;71.40
56761;DHT22;42633;44.494;11.356;2022-09-02T14:38:31;30.00;71.80
56761;DHT22;42633;44.494;11.356;2022-09-02T14:41:44;30.00;72.10
56761;DHT22;42633;44.494;11.356;2022-09-02T14:44:49;29.90;71.40
56761;DHT22;42633;44.494;11.356;2022-09-02T14:47:54;29.80;71.30
56761;DHT22;42633;44.494;11.356;2022-09-02T14:51:03;29.80;71.60
56761;DHT22;42633;44.494;11.356;2022-09-02T14:54:09;29.90;71.40
56761;DHT22;42633;44.494;11.356;2022-09-02T14:57:28;29.90;70.90
56761;DHT22;42633;44.494;11.356;2022-09-02T15:00:35;29.90;71.20
56761;DHT22;42633;44.494;11.356;2022-09-02T15:03:42;29.80;71.60
56761;DHT22;42633;44.494;11.356;2022-09-02T15:06:48;29.80;71.00
56761;DHT22;42633;44.494;11.356;2022-09-02T15:09:53;29.60;71.80
56761;DHT22;42633;44.494;11.356;2022-09-02T15:12:59;29.50;72.10
56761;DHT22;42633;44.494;11.356;2022-09-02T15:16:07;29.40;72.20
56761;DHT22;42633;44.494;11.356;2022-09-02T15:19:17;29.40;72.50
56761;DHT22;42633;44.494;11.356;2022-09-02T15:22:23;29.50;72.50
56761;DHT22;42633;44.494;11.356;2022-09-02T15:25:29;29.40;72.60
56761;DHT22;42633;44.494;11.356;2022-09-02T15:28:34;29.30;72.60
56761;DHT22;42633;44.494;11.356;2022-09-02T15:31:38;29.00;73.30
56761;DHT22;42633;44.494;11.356;2022-09-02T15:34:42;28.70;73.60
56761;DHT22;42633;44.494;11.356;2022-09-02T15:37:50;28.70;73.90
56761;DHT22;42633;44.494;11.356;2022-09-02T15:41:15;28.70;74.20
56761;DHT22;42633;44.494;11.356;2022-09-02T15:44:21;28.60;74.20
56761;DHT22;42633;44.494;11.356;2022-09-02T15:47:28;28.50;74.40
56761;DHT22;42633;44.494;11.356;2022-09-02T15:50:33;28.50;74.40
56761;DHT22;42633;44.494;11.356;2022-09-02T15:53:37;28.40;74.80
56761;DHT22;42633;44.494;11.356;2022-09-02T15:56:45;28.40;75.10
56761;DHT22;42633;44.494;11.356;2022-09-02T15:59:55;28.40;74.80
56761;DHT22;42633;44.494;11.356;2022-09-02T16:03:05;28.40;75.00
56761;DHT22;42633;44.494;11.356;2022-09-02T16:06:18;28.30;75.40
56761;DHT22;42633;44.494;11.356;2022-09-02T16:09:24;28.30;75.30
56761;DHT22;42633;44.494;11.356;2022-09-02T16:12:31;28.30;74.80
56761;DHT22;42633;44.494;11.356;2022-09-02T16:15:35;28.30;75.80
56761;DHT22;42633;44.494;11.356;2022-09-02T16:18:40;28.20;75.40
56761;DHT22;42633;44.494;11.356;2022-09-02T16:21:48;28.10;76.00
56761;DHT22;42633;44.494;11.356;2022-09-02T16:25:15;28.10;76.20
56761;DHT22;42633;44.494;11.356;2022-09-02T16:29:41;28.20;76.00
56761;DHT22;42633;44.494;11.356;2022-09-02T16:32:45;28.20;76.30
56761;DHT22;42633;44.494;11.356;2022-09-02T16:35:50;28.10;76.70
56761;DHT22;42633;44.494;11.356;2022-09-02T16:38:58;28.00;77.00
56761;DHT22;42633;44.494;11.356;2022-09-02T16:42:05;28.00;77.70
56761;DHT22;42633;44.494;11.356;2022-09-02T16:45:10;27.90;77.30
56761;DHT22;42633;44.494;11.356;2022-09-02T16:48:15;27.80;77.10
56761;DHT22;42633;44.494;11.356;2022-09-02T16:51:23;27.80;77.60
56761;DHT22;42633;44.494;11.356;2022-09-02T16:54:27;27.80;77.40
56761;DHT22;42633;44.494;11.356;2022-09-02T16:57:38;27.70;77.70
56761;DHT22;42633;44.494;11.356;2022-09-02T17:00:43;27.60;77.80
56761;DHT22;42633;44.494;11.356;2022-09-02T17:03:56;27.50;77.90
56761;DHT22;42633;44.494;11.356;2022-09-02T17:07:03;27.50;78.30
56761;DHT22;42633;44.494;11.356;2022-09-02T17:10:09;27.40;79.20
56761;DHT22;42633;44.494;11.356;2022-09-02T17:13:13;27.20;79.20
56761;DHT22;42633;44.494;11.356;2022-09-02T17:16:18;27.10;79.50
56761;DHT22;42633;44.494;11.356;2022-09-02T17:19:22;27.10;80.10
56761;DHT22;42633;44.494;11.356;2022-09-02T17:22:27;27.00;80.10
56761;DHT22;42633;44.494;11.356;2022-09-02T17:25:32;26.90;80.40
56761;DHT22;42633;44.494;11.356;2022-09-02T17:28:37;26.80;80.80
56761;DHT22;42633;44.494;11.356;2022-09-02T17:31:50;26.70;80.80
56761;DHT22;42633;44.494;11.356;2022-09-02T17:34:55;26.60;81.00
56761;DHT22;42633;44.494;11.356;2022-09-02T17:37:59;26.60;80.90
56761;DHT22;42633;44.494;11.356;2022-09-02T17:41:03;26.40;81.50
56761;DHT22;42633;44.494;11.356;2022-09-02T17:44:32;26.40;81.40
56761;DHT22;42633;44.494;11.356;2022-09-02T17:47:41;26.30;81.80
56761;DHT22;42633;44.494;11.356;2022-09-02T17:50:45;26.30;82.70
56761;DHT22;42633;44.494;11.356;2022-09-02T17:53:50;26.20;82.30
56761;DHT22;42633;44.494;11.356;2022-09-02T18:00:18;26.10;83.50
56761;DHT22;42633;44.494;11.356;2022-09-02T18:03:44;26.00;83.90
56761;DHT22;42633;44.494;11.356;2022-09-02T18:06:58;26.00;84.80
56761;DHT22;42633;44.494;11.356;2022-09-02T18:10:03;25.90;85.20
56761;DHT22;42633;44.494;11.356;2022-09-02T18:13:12;25.80;85.90
56761;DHT22;42633;44.494;11.356;2022-09-02T18:16:22;25.80;86.40
56761;DHT22;42633;44.494;11.356;2022-09-02T18:23:31;25.70;87.30
56761;DHT22;42633;44.494;11.356;2022-09-02T18:30:08;25.50;88.50
56761;DHT22;42633;44.494;11.356;2022-09-02T18:47:06;25.00;90.50
56761;DHT22;42633;44.494;11.356;2022-09-02T18:50:05;25.00;90.60
56761;DHT22;42633;44.494;11.356;2022-09-02T18:53:12;25.00;90.70
56761;DHT22;42633;44.494;11.356;2022-09-02T18:56:18;24.90;90.90
56761;DHT22;42633;44.494;11.356;2022-09-02T18:59:39;24.80;91.00
56761;DHT22;42633;44.494;11.356;2022-09-02T19:02:55;24.80;91.00
56761;DHT22;42633;44.494;11.356;2022-09-02T19:06:14;24.80;91.20
56761;DHT22;42633;44.494;11.356;2022-09-02T19:09:22;24.70;91.20
56761;DHT22;42633;44.494;11.356;2022-09-02T19:12:32;24.70;91.20
56761;DHT22;42633;44.494;11.356;2022-09-02T19:15:40;24.60;91.30
56761;DHT22;42633;44.494;11.356;2022-09-02T19:18:48;24.50;91.50
56761;DHT22;42633;44.494;11.356;2022-09-02T19:21:58;24.40;91.50
56761;DHT22;42633;44.494;11.356;2022-09-02T19:25:10;24.40;91.70
56761;DHT22;42633;44.494;11.356;2022-09-02T19:28:16;24.40;91.60
56761;DHT22;42633;44.494;11.356;2022-09-02T19:31:24;24.40;91.70
56761;DHT22;42633;44.494;11.356;2022-09-02T19:34:34;24.40;91.80
56761;DHT22;42633;44.494;11.356;2022-09-02T19:37:39;24.30;91.80
56761;DHT22;42633;44.494;11.356;2022-09-02T19:40:44;24.30;91.70
56761;DHT22;42633;44.494;11.356;2022-09-02T19:43:50;24.30;91.80
56761;DHT22;42633;44.494;11.356;2022-09-02T19:46:54;24.20;91.90
56761;DHT22;42633;44.494;11.356;2022-09-02T19:50:01;24.20;91.90
56761;DHT22;42633;44.494;11.356;2022-09-02T19:53:10;24.20;91.80
56761;DHT22;42633;44.494;11.356;2022-09-02T19:56:19;24.20;92.00
56761;DHT22;42633;44.494;11.356;2022-09-02T19:59:23;24.20;92.00
56761;DHT22;42633;44.494;11.356;2022-09-02T20:02:29;24.10;92.00
56761;DHT22;42633;44.494;11.356;2022-09-02T20:05:33;24.00;91.90
56761;DHT22;42633;44.494;11.356;2022-09-02T20:08:38;24.00;92.00
56761;DHT22;42633;44.494;11.356;2022-09-02T20:11:42;24.10;91.80
56761;DHT22;42633;44.494;11.356;2022-09-02T20:14:47;24.20;91.80
56761;DHT22;42633;44.494;11.356;2022-09-02T20:17:51;24.20;91.80
56761;DHT22;42633;44.494;11.356;2022-09-02T20:20:57;24.30;91.50
56761;DHT22;42633;44.494;11.356;2022-09-02T20:24:06;24.30;91.40
56761;DHT22;42633;44.494;11.356;2022-09-02T20:27:20;24.30;91.40
56761;DHT22;42633;44.494;11.356;2022-09-02T20:30:33;24.30;91.40
56761;DHT22;42633;44.494;11.356;2022-09-02T20:33:48;24.30;91.40
56761;DHT22;42633;44.494;11.356;2022-09-02T20:37:05;24.30;91.30
56761;DHT22;42633;44.494;11.356;2022-09-02T20:40:21;24.30;91.10
56761;DHT22;42633;44.494;11.356;2022-09-02T20:43:45;24.30;91.30
56761;DHT22;42633;44.494;11.356;2022-09-02T20:50:33;24.20;91.40
56761;DHT22;42633;44.494;11.356;2022-09-02T21:00:19;24.00;91.30
56761;DHT22;42633;44.494;11.356;2022-09-02T21:03:24;23.90;91.40
56761;DHT22;42633;44.494;11.356;2022-09-02T21:06:33;23.90;91.50
56761;DHT22;42633;44.494;11.356;2022-09-02T21:09:58;23.80;91.40
56761;DHT22;42633;44.494;11.356;2022-09-02T21:13:24;23.80;91.40
56761;DHT22;42633;44.494;11.356;2022-09-02T21:16:38;23.70;91.30
56761;DHT22;42633;44.494;11.356;2022-09-02T21:20:10;23.70;91.30
56761;DHT22;42633;44.494;11.356;2022-09-02T21:23:34;23.70;91.20
56761;DHT22;42633;44.494;11.356;2022-09-02T21:27:00;23.60;91.30
56761;DHT22;42633;44.494;11.356;2022-09-02T21:30:07;23.60;91.50
56761;DHT22;42633;44.494;11.356;2022-09-02T21:33:15;23.60;91.60
56761;DHT22;42633;44.494;11.356;2022-09-02T21:36:25;23.60;91.60
56761;DHT22;42633;44.494;11.356;2022-09-02T21:39:34;23.60;91.50
56761;DHT22;42633;44.494;11.356;2022-09-02T21:56:36;23.30;93.00
56761;DHT22;42633;44.494;11.356;2022-09-02T21:59:47;23.30;93.20
56761;DHT22;42633;44.494;11.356;2022-09-02T22:03:22;23.30;93.20
56761;DHT22;42633;44.494;11.356;2022-09-02T22:06:43;23.20;93.50
56761;DHT22;42633;44.494;11.356;2022-09-02T22:10:11;23.20;93.70
56761;DHT22;42633;44.494;11.356;2022-09-02T22:13:18;23.20;93.50
56761;DHT22;42633;44.494;11.356;2022-09-02T22:19:39;23.10;93.10
56761;DHT22;42633;44.494;11.356;2022-09-02T22:22:50;23.00;93.10
56761;DHT22;42633;44.494;11.356;2022-09-02T22:26:27;23.00;93.30
56761;DHT22;42633;44.494;11.356;2022-09-02T22:32:41;23.00;93.60
56761;DHT22;42633;44.494;11.356;2022-09-02T22:35:51;22.90;93.60
56761;DHT22;42633;44.494;11.356;2022-09-02T22:38:57;23.00;93.60
56761;DHT22;42633;44.494;11.356;2022-09-02T22:42:20;22.90;93.60
56761;DHT22;42633;44.494;11.356;2022-09-02T22:45:33;22.90;93.50
56761;DHT22;42633;44.494;11.356;2022-09-02T22:49:00;22.90;93.60
56761;DHT22;42633;44.494;11.356;2022-09-02T22:52:37;22.90;93.70
56761;DHT22;42633;44.494;11.356;2022-09-02T22:56:05;22.80;93.80
56761;DHT22;42633;44.494;11.356;2022-09-02T22:59:41;22.80;94.00
56761;DHT22;42633;44.494;11.356;2022-09-02T23:03:20;22.80;94.10
56761;DHT22;42633;44.494;11.356;2022-09-02T23:06:30;22.80;94.30